createdAt,value
2019-03-31T00:07:17.376Z,57.02
2019-03-31T00:17:18.045Z,57.36
2019-03-31T00:27:18.782Z,58.42
2019-03-31T00:37:19.673Z,58.13
2019-03-31T00:47:21.367Z,59.12
2019-03-31T00:57:22.054Z,59.25
2019-03-31T01:07:24.546Z,58.69
2019-03-31T01:17:25.296Z,58.48
2019-03-31T01:27:25.996Z,56.98
2019-03-31T01:37:29.941Z,56.71
2019-03-31T01:47:30.729Z,57.10
2019-03-31T01:57:31.542Z,57.18
2019-03-31T02:07:32.291Z,58.95
2019-03-31T02:17:32.986Z,60.65
2019-03-31T02:27:33.755Z,58.88
2019-03-31T02:37:34.467Z,57.42
2019-03-31T02:47:35.270Z,57.98
2019-03-31T02:57:42.151Z,58.16
2019-03-31T03:07:45.864Z,57.88
2019-03-31T03:17:46.618Z,56.29
2019-03-31T03:27:47.484Z,59.45
2019-03-31T03:37:48.429Z,58.66
2019-03-31T03:47:50.277Z,58.36
2019-03-31T03:57:53.111Z,60.12
2019-03-31T04:07:53.900Z,59.64
2019-03-31T04:17:54.635Z,60.49
2019-03-31T04:27:55.333Z,58.52
2019-03-31T04:37:56.140Z,58.95
2019-03-31T04:47:56.839Z,59.10
2019-03-31T04:57:57.556Z,61.27
2019-03-31T05:07:58.335Z,60.17
2019-03-31T05:17:59.064Z,59.85
2019-03-31T05:27:59.733Z,58.35
2019-03-31T05:38:00.553Z,59.75
2019-03-31T05:48:02.307Z,61.91
2019-03-31T05:58:03.059Z,58.74
2019-03-31T06:08:07.792Z,56.60
2019-03-31T06:18:08.433Z,56.88
2019-03-31T06:28:09.119Z,54.25
2019-03-31T06:38:10.922Z,51.07
2019-03-31T06:48:11.610Z,49.45
2019-03-31T06:58:12.323Z,48.15
2019-03-31T07:08:13.159Z,47.20
2019-03-31T07:18:19.793Z,47.22
2019-03-31T07:28:21.507Z,46.05
2019-03-31T07:38:38.018Z,45.85
2019-03-31T07:48:26.991Z,47.88
2019-03-31T07:58:29.714Z,49.42
2019-03-31T08:08:30.549Z,47.70
2019-03-31T08:18:31.266Z,45.20
2019-03-31T08:30:13.840Z,45.50
2019-03-31T08:39:06.860Z,49.10
2019-03-31T08:49:08.919Z,54.87
2019-03-31T08:59:10.030Z,52.77
2019-03-31T09:09:12.802Z,45.85
2019-03-31T09:19:13.536Z,45.29
2019-03-31T09:29:14.444Z,46.93
2019-03-31T09:39:15.250Z,50.01
2019-03-31T09:49:16.197Z,51.44
2019-03-31T09:59:17.487Z,48.01
2019-03-31T10:09:18.744Z,48.27
2019-03-31T10:19:19.602Z,44.13
2019-03-31T10:29:20.477Z,46.92
2019-03-31T10:39:22.286Z,46.17
2019-03-31T10:49:23.207Z,44.52
2019-03-31T10:59:24.054Z,44.32
2019-03-31T11:09:24.984Z,42.52
2019-03-31T11:19:26.989Z,43.31
2019-03-31T11:29:28.856Z,41.23
2019-03-31T11:39:29.749Z,43.22
2019-03-31T11:49:34.723Z,40.12
2019-03-31T11:59:39.749Z,40.27
2019-03-31T12:09:42.839Z,40.46
2019-03-31T12:19:44.600Z,38.21
2019-03-31T12:29:47.522Z,37.37
2019-03-31T12:39:48.395Z,39.27
2019-03-31T12:49:50.065Z,38.91
2019-03-31T12:59:50.906Z,40.30
2019-03-31T13:09:51.891Z,38.67
2019-03-31T13:20:09.205Z,44.68
2019-03-31T13:30:12.151Z,45.47
2019-03-31T13:40:21.083Z,46.28
2019-03-31T13:50:22.691Z,47.36
2019-03-31T14:00:36.455Z,46.42
2019-03-31T14:10:43.108Z,56.03
2019-03-31T14:20:43.897Z,55.71
2019-03-31T14:31:08.304Z,54.18
2019-03-31T14:40:59.403Z,52.69
2019-03-31T14:51:06.200Z,52.09
2019-03-31T15:01:07.018Z,51.04
2019-03-31T15:11:07.920Z,51.21
2019-03-31T15:21:08.542Z,51.00
2019-03-31T15:31:09.272Z,53.00
2019-03-31T15:41:20.534Z,55.92
2019-03-31T15:51:13.778Z,57.50
2019-03-31T16:01:14.906Z,55.59
2019-03-31T16:11:16.621Z,57.30
2019-03-31T16:21:19.325Z,55.90
2019-03-31T16:31:20.067Z,55.48
2019-03-31T16:41:21.751Z,55.74
2019-03-31T16:51:22.441Z,55.65
2019-03-31T17:01:23.170Z,55.31
2019-03-31T17:11:23.970Z,54.78
2019-03-31T17:21:24.808Z,56.52
2019-03-31T17:31:25.607Z,57.01
2019-03-31T17:41:26.264Z,58.38
2019-03-31T17:51:29.121Z,58.28
2019-03-31T18:01:29.867Z,59.10
2019-03-31T18:11:32.798Z,60.84
2019-03-31T18:21:33.656Z,60.79
2019-03-31T18:31:35.341Z,59.83
2019-03-31T18:41:42.274Z,61.56
2019-03-31T18:51:43.099Z,61.04
2019-03-31T19:01:43.778Z,60.53
2019-03-31T19:11:44.506Z,62.02
2019-03-31T19:21:46.157Z,59.95
2019-03-31T19:31:46.849Z,60.95
2019-03-31T19:41:47.593Z,61.24
2019-03-31T19:51:48.291Z,62.74
2019-03-31T20:01:49.087Z,62.74
2019-03-31T20:11:49.742Z,63.01
2019-03-31T20:21:50.573Z,60.05
2019-03-31T20:31:57.038Z,59.65
2019-03-31T20:41:57.965Z,60.04
2019-03-31T20:51:58.696Z,60.91
2019-03-31T21:01:59.374Z,61.89
2019-03-31T21:12:00.254Z,60.88
2019-03-31T21:22:00.905Z,60.51
2019-03-31T21:32:07.453Z,62.48
2019-03-31T21:42:08.235Z,62.97
2019-03-31T21:52:09.049Z,62.96
2019-03-31T22:02:09.752Z,63.49
2019-03-31T22:12:11.496Z,61.29
2019-03-31T22:22:14.181Z,61.29
2019-03-31T22:32:15.872Z,60.63
2019-03-31T22:42:17.558Z,60.03
2019-03-31T22:52:18.270Z,60.94
2019-03-31T23:02:18.979Z,61.25
2019-03-31T23:12:19.744Z,61.32
2019-03-31T23:22:20.536Z,60.75
2019-03-31T23:32:25.265Z,61.32
2019-03-31T23:42:26.004Z,60.75
2019-03-31T23:52:26.674Z,61.75
